Wetterdaten: Woche 14.08.17 - 20.08.17 (KW33)
Datum Zeit Temperatur Luftfeuchte Luftdruck Niederschlag Windrichtung Sonnenschein Solar Wind
14.08.2017 00:00 15,3 C 94 % 1018,0 hPa 0,0 l/m N 0,00 h 0 W/m 0,0 km/h (0 Bft)
14.08.2017 01:00 14,9 C 95 % 1017,7 hPa 0,0 l/m N 0,00 h 0 W/m 1,3 km/h (1 Bft)
14.08.2017 02:00 14,5 C 96 % 1017,2 hPa 0,0 l/m N 0,00 h 0 W/m 0,1 km/h (0 Bft)
14.08.2017 03:00 14,0 C 96 % 1017,0 hPa 0,0 l/m N 0,00 h 0 W/m 0,0 km/h (0 Bft)
14.08.2017 04:00 13,7 C 97 % 1016,8 hPa 0,0 l/m N 0,00 h 0 W/m 0,7 km/h (0 Bft)
14.08.2017 05:00 13,3 C 97 % 1016,7 hPa 0,0 l/m NO 0,00 h 0 W/m 0,9 km/h (0 Bft)
14.08.2017 06:00 13,1 C 98 % 1016,8 hPa 0,0 l/m NO 0,25 h 22 W/m 2,9 km/h (1 Bft)
14.08.2017 07:00 13,5 C 98 % 1017,0 hPa 0,0 l/m NO 0,08 h 67 W/m 1,3 km/h (1 Bft)
14.08.2017 08:00 14,5 C 99 % 1017,0 hPa 0,0 l/m NO 0,17 h 161 W/m 3,5 km/h (1 Bft)
14.08.2017 09:00 16,4 C 94 % 1017,0 hPa 0,0 l/m NO 0,58 h 373 W/m 2,1 km/h (1 Bft)
14.08.2017 10:00 18,5 C 87 % 1017,0 hPa 0,0 l/m NO 0,92 h 562 W/m 0,9 km/h (0 Bft)
14.08.2017 11:00 21,0 C 77 % 1017,0 hPa 0,0 l/m NO 0,67 h 623 W/m 1,3 km/h (1 Bft)
14.08.2017 12:00 22,9 C 70 % 1016,9 hPa 0,0 l/m O-NO 1,00 h 797 W/m 4,1 km/h (1 Bft)
14.08.2017 13:00 24,4 C 66 % 1016,6 hPa 0,0 l/m S 1,00 h 802 W/m 7,6 km/h (2 Bft)
14.08.2017 14:00 25,9 C 60 % 1016,2 hPa 0,0 l/m S-SW 1,00 h 757 W/m 7,8 km/h (2 Bft)
14.08.2017 15:00 26,2 C 57 % 1015,8 hPa 0,0 l/m W 1,00 h 697 W/m 11,5 km/h (2 Bft)
14.08.2017 16:00 27,0 C 51 % 1015,4 hPa 0,0 l/m W-SW 1,00 h 584 W/m 11,1 km/h (2 Bft)
14.08.2017 17:00 27,0 C 50 % 1015,3 hPa 0,0 l/m W-SW 1,00 h 426 W/m 10,1 km/h (2 Bft)
14.08.2017 18:00 26,4 C 52 % 1015,1 hPa 0,0 l/m SW 1,00 h 255 W/m 10,5 km/h (2 Bft)
14.08.2017 19:00 24,5 C 62 % 1015,0 hPa 0,0 l/m SW 0,25 h 77 W/m 4,3 km/h (1 Bft)
14.08.2017 20:00 21,0 C 79 % 1015,1 hPa 0,0 l/m N 0,08 h 13 W/m 0,0 km/h (0 Bft)
14.08.2017 21:00 18,6 C 87 % 1015,5 hPa 0,0 l/m N 0,00 h 0 W/m 0,0 km/h (0 Bft)
14.08.2017 22:00 17,5 C 89 % 1015,8 hPa 0,0 l/m N 0,00 h 0 W/m 0,0 km/h (0 Bft)
14.08.2017 23:00 16,8 C 91 % 1015,9 hPa 0,0 l/m N 0,00 h 0 W/m 0,0 km/h (0 Bft)
15.08.2017 00:00 16,0 C 92 % 1016,1 hPa 0,0 l/m N 0,00 h 0 W/m 0,0 km/h (0 Bft)
15.08.2017 01:00 15,3 C 94 % 1016,1 hPa 0,0 l/m N 0,00 h 0 W/m 0,0 km/h (0 Bft)
15.08.2017 02:00 14,9 C 96 % 1016,0 hPa 0,0 l/m N 0,00 h 0 W/m 0,0 km/h (0 Bft)
15.08.2017 03:00 14,4 C 96 % 1015,8 hPa 0,0 l/m N 0,00 h 0 W/m 0,0 km/h (0 Bft)
15.08.2017 04:00 13,9 C 97 % 1015,9 hPa 0,0 l/m N 0,00 h 0 W/m 0,0 km/h (0 Bft)
15.08.2017 05:00 13,9 C 97 % 1016,1 hPa 0,0 l/m N 0,00 h 0 W/m 0,0 km/h (0 Bft)
15.08.2017 06:00 13,6 C 98 % 1016,3 hPa 0,0 l/m N 0,50 h 28 W/m 0,0 km/h (0 Bft)
15.08.2017 07:00 14,8 C 97 % 1016,5 hPa 0,0 l/m N 0,58 h 117 W/m 0,0 km/h (0 Bft)
15.08.2017 08:00 17,6 C 91 % 1016,3 hPa 0,0 l/m NO 0,67 h 278 W/m 2,9 km/h (1 Bft)
15.08.2017 09:00 20,9 C 77 % 1016,3 hPa 0,0 l/m S-SO 0,92 h 412 W/m 7,6 km/h (2 Bft)
15.08.2017 10:00 22,7 C 70 % 1016,1 hPa 0,0 l/m S-SW 0,92 h 536 W/m 13,8 km/h (3 Bft)
15.08.2017 11:00 24,5 C 66 % 1016,0 hPa 0,0 l/m S-SW 1,00 h 646 W/m 13,2 km/h (3 Bft)
15.08.2017 12:00 26,5 C 61 % 1015,6 hPa 0,0 l/m SW 1,00 h 740 W/m 12,5 km/h (3 Bft)
15.08.2017 13:00 28,1 C 51 % 1015,5 hPa 0,0 l/m W-SW 1,00 h 788 W/m 17,4 km/h (3 Bft)
15.08.2017 14:00 28,9 C 43 % 1015,3 hPa 0,0 l/m W-SW 1,00 h 756 W/m 21,4 km/h (4 Bft)
15.08.2017 15:00 28,9 C 44 % 1014,9 hPa 0,0 l/m W-SW 0,92 h 604 W/m 21,6 km/h (4 Bft)
15.08.2017 16:00 28,7 C 47 % 1014,7 hPa 0,0 l/m W-SW 0,92 h 556 W/m 20,4 km/h (4 Bft)
15.08.2017 17:00 28,9 C 47 % 1014,1 hPa 0,0 l/m W 1,00 h 407 W/m 15,2 km/h (3 Bft)
15.08.2017 18:00 27,7 C 51 % 1014,2 hPa 0,0 l/m W-SW 0,58 h 182 W/m 10,1 km/h (2 Bft)
15.08.2017 19:00 23,7 C 66 % 1015,0 hPa 0,2 l/m N 0,00 h 25 W/m 10,2 km/h (2 Bft)
15.08.2017 20:00 20,3 C 87 % 1015,4 hPa 0,4 l/m N-NO 0,17 h 21 W/m 3,4 km/h (1 Bft)
15.08.2017 21:00 19,1 C 92 % 1016,6 hPa 0,6 l/m N 0,00 h 0 W/m 1,5 km/h (1 Bft)
15.08.2017 22:00 18,5 C 95 % 1017,0 hPa 0,4 l/m N-NO 0,00 h 0 W/m 3,5 km/h (1 Bft)
15.08.2017 23:00 18,0 C 96 % 1017,6 hPa 11,0 l/m W-NW 0,00 h 0 W/m 4,7 km/h (1 Bft)
16.08.2017 00:00 17,5 C 97 % 1017,4 hPa 0,2 l/m W 0,00 h 0 W/m 1,1 km/h (0 Bft)
16.08.2017 01:00 17,1 C 98 % 1017,3 hPa 0,0 l/m W 0,00 h 0 W/m 1,3 km/h (1 Bft)
16.08.2017 02:00 17,0 C 98 % 1018,0 hPa 7,0 l/m W 0,00 h 0 W/m 6,4 km/h (2 Bft)
16.08.2017 03:00 16,5 C 98 % 1018,4 hPa 6,4 l/m W 0,00 h 0 W/m 2,1 km/h (1 Bft)
16.08.2017 04:00 15,9 C 98 % 1018,6 hPa 0,8 l/m N 0,00 h 0 W/m 0,0 km/h (0 Bft)
16.08.2017 05:00 15,9 C 99 % 1018,3 hPa 0,2 l/m N 0,00 h 0 W/m 0,0 km/h (0 Bft)
16.08.2017 06:00 15,8 C 99 % 1018,4 hPa 0,0 l/m N 0,00 h 13 W/m 1,3 km/h (1 Bft)
16.08.2017 07:00 16,1 C 99 % 1018,7 hPa 0,0 l/m N 0,00 h 49 W/m 0,3 km/h (0 Bft)
16.08.2017 08:00 16,7 C 99 % 1018,9 hPa 0,0 l/m W 0,00 h 109 W/m 0,9 km/h (0 Bft)
16.08.2017 09:00 17,7 C 99 % 1018,9 hPa 0,0 l/m W 0,83 h 359 W/m 3,9 km/h (1 Bft)
16.08.2017 10:00 19,5 C 93 % 1018,8 hPa 0,0 l/m N 0,17 h 376 W/m 1,1 km/h (0 Bft)
16.08.2017 11:00 21,0 C 85 % 1018,6 hPa 0,0 l/m W 0,42 h 518 W/m 2,4 km/h (1 Bft)
16.08.2017 12:00 22,8 C 76 % 1018,2 hPa 0,0 l/m SW 0,83 h 773 W/m 4,7 km/h (1 Bft)
16.08.2017 13:00 24,4 C 68 % 1017,6 hPa 0,0 l/m O-SO 1,00 h 884 W/m 8,3 km/h (2 Bft)
16.08.2017 14:00 24,9 C 63 % 1017,3 hPa 0,0 l/m S-SO 0,50 h 573 W/m 7,1 km/h (2 Bft)
16.08.2017 15:00 25,2 C 62 % 1017,0 hPa 0,0 l/m SW 0,75 h 627 W/m 9,1 km/h (2 Bft)
16.08.2017 16:00 25,1 C 62 % 1016,7 hPa 0,0 l/m W-SW 0,58 h 393 W/m 9,1 km/h (2 Bft)
16.08.2017 17:00 25,4 C 58 % 1016,5 hPa 0,0 l/m W-SW 1,00 h 409 W/m 6,0 km/h (2 Bft)
16.08.2017 18:00 24,1 C 67 % 1016,4 hPa 0,0 l/m N 0,08 h 149 W/m 0,0 km/h (0 Bft)
16.08.2017 19:00 22,1 C 79 % 1016,5 hPa 0,0 l/m N 0,00 h 64 W/m 0,0 km/h (0 Bft)
16.08.2017 20:00 20,5 C 84 % 1016,6 hPa 0,0 l/m N 0,17 h 14 W/m 0,0 km/h (0 Bft)
16.08.2017 21:00 19,2 C 87 % 1017,0 hPa 0,0 l/m N 0,00 h 0 W/m 0,0 km/h (0 Bft)
16.08.2017 22:00 18,1 C 91 % 1017,1 hPa 0,0 l/m N 0,00 h 0 W/m 0,0 km/h (0 Bft)
16.08.2017 23:00 17,2 C 95 % 1016,9 hPa 0,0 l/m N 0,00 h 0 W/m 0,0 km/h (0 Bft)
17.08.2017 00:00 16,8 C 96 % 1016,9 hPa 0,0 l/m N 0,00 h 0 W/m 0,0 km/h (0 Bft)
17.08.2017 01:00 16,8 C 97 % 1016,8 hPa 0,0 l/m N 0,00 h 0 W/m 0,0 km/h (0 Bft)
17.08.2017 02:00 16,4 C 97 % 1016,4 hPa 0,0 l/m N 0,00 h 0 W/m 0,1 km/h (0 Bft)
17.08.2017 03:00 16,3 C 98 % 1016,4 hPa 0,0 l/m N 0,00 h 0 W/m 0,0 km/h (0 Bft)
17.08.2017 04:00 16,1 C 98 % 1016,4 hPa 0,0 l/m N 0,00 h 0 W/m 0,0 km/h (0 Bft)
17.08.2017 05:00 15,8 C 98 % 1016,3 hPa 0,0 l/m N 0,00 h 0 W/m 0,0 km/h (0 Bft)
17.08.2017 06:00 15,6 C 98 % 1016,2 hPa 0,0 l/m N 0,08 h 18 W/m 0,0 km/h (0 Bft)
17.08.2017 07:00 16,0 C 99 % 1016,4 hPa 0,0 l/m N 0,08 h 62 W/m 0,1 km/h (0 Bft)
17.08.2017 08:00 17,0 C 98 % 1016,8 hPa 0,0 l/m N 0,00 h 102 W/m 0,3 km/h (0 Bft)
17.08.2017 09:00 18,7 C 97 % 1016,9 hPa 0,0 l/m S-SW 0,17 h 217 W/m 3,6 km/h (1 Bft)
17.08.2017 10:00 20,9 C 90 % 1016,9 hPa 0,0 l/m S 0,92 h 503 W/m 9,9 km/h (2 Bft)
17.08.2017 11:00 23,6 C 78 % 1016,6 hPa 0,0 l/m S-SW 1,00 h 673 W/m 9,4 km/h (2 Bft)
17.08.2017 12:00 25,2 C 70 % 1016,1 hPa 0,0 l/m S-SW 1,00 h 832 W/m 12,4 km/h (3 Bft)
17.08.2017 13:00 25,7 C 66 % 1015,8 hPa 0,0 l/m W-SW 0,83 h 605 W/m 13,3 km/h (3 Bft)
17.08.2017 14:00 26,3 C 62 % 1015,4 hPa 0,0 l/m SW 0,92 h 663 W/m 13,3 km/h (3 Bft)
17.08.2017 15:00 26,6 C 60 % 1015,0 hPa 0,0 l/m W-SW 0,75 h 551 W/m 14,5 km/h (3 Bft)
17.08.2017 16:00 27,1 C 59 % 1014,6 hPa 0,0 l/m W 0,92 h 504 W/m 14,5 km/h (3 Bft)
17.08.2017 17:00 27,0 C 59 % 1014,7 hPa 0,0 l/m W 0,75 h 428 W/m 14,5 km/h (3 Bft)
17.08.2017 18:00 26,3 C 62 % 1014,8 hPa 0,0 l/m W-SW 0,50 h 188 W/m 8,9 km/h (2 Bft)
17.08.2017 19:00 24,7 C 67 % 1015,0 hPa 0,0 l/m W 0,42 h 80 W/m 5,5 km/h (1 Bft)
17.08.2017 20:00 22,1 C 80 % 1015,1 hPa 0,0 l/m N 0,08 h 9 W/m 0,0 km/h (0 Bft)
17.08.2017 21:00 20,1 C 86 % 1015,2 hPa 0,0 l/m N 0,00 h 0 W/m 0,9 km/h (0 Bft)
17.08.2017 22:00 19,1 C 90 % 1015,0 hPa 0,0 l/m N 0,00 h 0 W/m 0,0 km/h (0 Bft)
17.08.2017 23:00 18,2 C 93 % 1015,1 hPa 0,0 l/m N 0,00 h 0 W/m 0,0 km/h (0 Bft)
18.08.2017 00:00 17,5 C 95 % 1015,3 hPa 0,0 l/m N 0,00 h 0 W/m 0,0 km/h (0 Bft)
18.08.2017 01:00 17,3 C 97 % 1015,3 hPa 0,0 l/m N 0,00 h 0 W/m 0,0 km/h (0 Bft)
18.08.2017 02:00 17,5 C 97 % 1015,1 hPa 0,0 l/m N 0,00 h 0 W/m 0,0 km/h (0 Bft)
18.08.2017 03:00 16,7 C 97 % 1014,9 hPa 0,0 l/m N 0,00 h 0 W/m 0,0 km/h (0 Bft)
18.08.2017 04:00 16,1 C 97 % 1014,7 hPa 0,0 l/m N 0,00 h 0 W/m 0,0 km/h (0 Bft)
18.08.2017 05:00 15,5 C 98 % 1014,4 hPa 0,0 l/m N 0,00 h 0 W/m 0,0 km/h (0 Bft)
18.08.2017 06:00 15,3 C 98 % 1014,4 hPa 0,0 l/m N 0,33 h 25 W/m 0,0 km/h (0 Bft)
18.08.2017 07:00 16,1 C 98 % 1014,3 hPa 0,0 l/m N 0,42 h 92 W/m 0,0 km/h (0 Bft)
18.08.2017 08:00 17,4 C 97 % 1013,9 hPa 0,0 l/m W 0,25 h 182 W/m 1,2 km/h (1 Bft)
18.08.2017 09:00 20,8 C 91 % 1013,8 hPa 0,0 l/m W 0,83 h 406 W/m 5,4 km/h (1 Bft)
18.08.2017 10:00 23,2 C 80 % 1013,5 hPa 0,0 l/m SW 0,83 h 486 W/m 8,2 km/h (2 Bft)
18.08.2017 11:00 25,1 C 70 % 1013,1 hPa 0,0 l/m S-SW 1,00 h 725 W/m 9,1 km/h (2 Bft)
18.08.2017 12:00 26,6 C 66 % 1012,2 hPa 0,0 l/m S 1,00 h 761 W/m 13,3 km/h (3 Bft)
18.08.2017 13:00 27,7 C 60 % 1011,4 hPa 0,0 l/m SW 1,00 h 785 W/m 14,2 km/h (3 Bft)
18.08.2017 14:00 28,8 C 51 % 1010,8 hPa 0,0 l/m W-SW 1,00 h 754 W/m 17,3 km/h (3 Bft)
18.08.2017 15:00 29,5 C 47 % 1009,8 hPa 0,0 l/m SW 1,00 h 674 W/m 16,1 km/h (3 Bft)
18.08.2017 16:00 29,9 C 47 % 1008,9 hPa 0,0 l/m SW 1,00 h 557 W/m 14,5 km/h (3 Bft)
18.08.2017 17:00 29,1 C 52 % 1008,1 hPa 0,0 l/m SW 0,75 h 320 W/m 9,8 km/h (2 Bft)
18.08.2017 18:00 27,1 C 62 % 1007,7 hPa 0,0 l/m W-SW 0,00 h 119 W/m 3,8 km/h (1 Bft)
18.08.2017 19:00 23,4 C 69 % 1009,1 hPa 15,2 l/m N-NW 0,00 h 22 W/m 35,4 km/h (5 Bft)
18.08.2017 20:00 15,7 C 93 % 1012,5 hPa 2,6 l/m NW 0,00 h 0 W/m 11,7 km/h (2 Bft)
18.08.2017 21:00 15,1 C 96 % 1014,0 hPa 0,8 l/m SW 0,00 h 0 W/m 13,8 km/h (3 Bft)
18.08.2017 22:00 15,3 C 98 % 1014,2 hPa 0,0 l/m N 0,00 h 0 W/m 2,9 km/h (1 Bft)
18.08.2017 23:00 15,7 C 98 % 1014,6 hPa 0,0 l/m N 0,00 h 0 W/m 0,9 km/h (0 Bft)
19.08.2017 00:00 15,4 C 98 % 1015,0 hPa 0,0 l/m SW 0,00 h 0 W/m 5,1 km/h (1 Bft)
19.08.2017 01:00 15,3 C 97 % 1014,6 hPa 0,0 l/m W-SW 0,00 h 0 W/m 1,3 km/h (1 Bft)
19.08.2017 02:00 15,3 C 97 % 1014,6 hPa 0,0 l/m N 0,00 h 0 W/m 0,8 km/h (0 Bft)
19.08.2017 03:00 15,3 C 97 % 1014,6 hPa 0,0 l/m N 0,00 h 0 W/m 1,1 km/h (0 Bft)
19.08.2017 04:00 14,9 C 98 % 1014,5 hPa 0,0 l/m N 0,00 h 0 W/m 0,0 km/h (0 Bft)
19.08.2017 05:00 14,8 C 98 % 1014,7 hPa 0,0 l/m N 0,00 h 0 W/m 1,7 km/h (1 Bft)
19.08.2017 06:00 14,7 C 98 % 1015,2 hPa 0,0 l/m N 0,00 h 11 W/m 0,8 km/h (0 Bft)
19.08.2017 07:00 14,6 C 99 % 1015,5 hPa 0,0 l/m N 0,00 h 44 W/m 0,7 km/h (0 Bft)
19.08.2017 08:00 14,9 C 99 % 1016,2 hPa 0,0 l/m N 0,00 h 110 W/m 0,0 km/h (0 Bft)
19.08.2017 09:00 15,6 C 96 % 1016,5 hPa 0,0 l/m W-SW 0,17 h 217 W/m 1,7 km/h (1 Bft)
19.08.2017 10:00 16,0 C 92 % 1016,9 hPa 0,0 l/m NW 0,00 h 185 W/m 6,4 km/h (2 Bft)
19.08.2017 11:00 16,2 C 88 % 1016,8 hPa 0,0 l/m N-NO 0,00 h 235 W/m 8,2 km/h (2 Bft)
19.08.2017 12:00 14,7 C 90 % 1017,3 hPa 0,8 l/m N 0,08 h 188 W/m 11,3 km/h (2 Bft)
19.08.2017 13:00 16,6 C 88 % 1017,1 hPa 0,0 l/m N 0,83 h 754 W/m 5,5 km/h (1 Bft)
19.08.2017 14:00 18,4 C 75 % 1017,0 hPa 0,0 l/m W-NW 0,58 h 598 W/m 10,2 km/h (2 Bft)
19.08.2017 15:00 19,6 C 69 % 1016,7 hPa 0,0 l/m N-NW 0,83 h 641 W/m 7,6 km/h (2 Bft)
19.08.2017 16:00 19,9 C 66 % 1016,5 hPa 0,0 l/m N-NW 0,42 h 415 W/m 3,2 km/h (1 Bft)
19.08.2017 17:00 20,2 C 64 % 1016,4 hPa 0,0 l/m N-NW 0,42 h 254 W/m 2,0 km/h (1 Bft)
19.08.2017 18:00 19,2 C 70 % 1016,7 hPa 0,0 l/m N 0,00 h 101 W/m 5,5 km/h (1 Bft)
19.08.2017 19:00 18,1 C 71 % 1017,1 hPa 0,0 l/m N 0,58 h 86 W/m 16,1 km/h (3 Bft)
19.08.2017 20:00 16,8 C 77 % 1017,8 hPa 0,0 l/m N-NO 0,33 h 20 W/m 7,2 km/h (2 Bft)
19.08.2017 21:00 15,1 C 85 % 1018,7 hPa 0,0 l/m N 0,00 h 0 W/m 0,0 km/h (0 Bft)
19.08.2017 22:00 14,7 C 88 % 1019,3 hPa 0,0 l/m N 0,00 h 0 W/m 2,8 km/h (1 Bft)
19.08.2017 23:00 13,9 C 88 % 1019,8 hPa 0,0 l/m N 0,00 h 0 W/m 2,4 km/h (1 Bft)
20.08.2017 00:00 12,6 C 89 % 1019,8 hPa 0,0 l/m N 0,00 h 0 W/m 0,1 km/h (0 Bft)
20.08.2017 01:00 11,9 C 88 % 1019,6 hPa 0,0 l/m N 0,00 h 0 W/m 0,4 km/h (0 Bft)
20.08.2017 02:00 10,8 C 90 % 1019,7 hPa 0,0 l/m N 0,00 h 0 W/m 0,0 km/h (0 Bft)
20.08.2017 03:00 10,7 C 94 % 1019,8 hPa 0,0 l/m N 0,00 h 0 W/m 0,0 km/h (0 Bft)
20.08.2017 04:00 10,5 C 94 % 1020,0 hPa 0,0 l/m N 0,00 h 0 W/m 0,0 km/h (0 Bft)
20.08.2017 05:00 10,5 C 96 % 1020,5 hPa 0,0 l/m N 0,00 h 0 W/m 0,0 km/h (0 Bft)
20.08.2017 06:00 9,8 C 96 % 1020,8 hPa 0,0 l/m N 0,42 h 21 W/m 0,0 km/h (0 Bft)
20.08.2017 07:00 10,3 C 97 % 1021,1 hPa 0,0 l/m N 0,75 h 113 W/m 0,0 km/h (0 Bft)
20.08.2017 08:00 13,0 C 88 % 1021,4 hPa 0,0 l/m N 1,00 h 275 W/m 0,4 km/h (0 Bft)
20.08.2017 09:00 14,5 C 78 % 1021,8 hPa 0,0 l/m N 0,42 h 272 W/m 1,1 km/h (0 Bft)
20.08.2017 10:00 15,8 C 72 % 1022,0 hPa 0,0 l/m N 0,67 h 446 W/m 2,1 km/h (1 Bft)
20.08.2017 11:00 17,2 C 65 % 1022,0 hPa 0,0 l/m N-NW 0,67 h 547 W/m 2,3 km/h (1 Bft)
20.08.2017 12:00 17,3 C 62 % 1021,9 hPa 0,0 l/m NW 0,17 h 391 W/m 3,9 km/h (1 Bft)
20.08.2017 13:00 18,4 C 57 % 1021,5 hPa 0,0 l/m W-NW 0,58 h 653 W/m 7,2 km/h (2 Bft)
20.08.2017 14:00 17,9 C 60 % 1021,4 hPa 0,0 l/m W 0,00 h 210 W/m 6,0 km/h (2 Bft)
20.08.2017 15:00 18,8 C 58 % 1021,3 hPa 0,0 l/m W 0,42 h 494 W/m 4,3 km/h (1 Bft)
20.08.2017 16:00 19,2 C 56 % 1021,3 hPa 0,0 l/m W 0,42 h 427 W/m 5,5 km/h (1 Bft)
20.08.2017 17:00 18,3 C 61 % 1021,3 hPa 0,0 l/m W-SW 0,00 h 90 W/m 2,4 km/h (1 Bft)
20.08.2017 18:00 18,6 C 62 % 1021,3 hPa 0,0 l/m W-SW 0,58 h 194 W/m 1,6 km/h (1 Bft)
20.08.2017 19:00 17,6 C 70 % 1021,2 hPa 0,0 l/m N 0,42 h 74 W/m 0,0 km/h (0 Bft)
20.08.2017 20:00 15,2 C 81 % 1021,6 hPa 0,0 l/m N 0,08 h 13 W/m 0,0 km/h (0 Bft)
20.08.2017 21:00 13,6 C 85 % 1022,2 hPa 0,0 l/m N 0,00 h 0 W/m 1,2 km/h (1 Bft)
20.08.2017 22:00 12,8 C 88 % 1022,5 hPa 0,0 l/m N 0,00 h 0 W/m 0,1 km/h (0 Bft)
20.08.2017 23:00 11,8 C 91 % 1022,7 hPa 0,0 l/m N 0,00 h 0 W/m 0,5 km/h (0 Bft)
Min-Datum _ 20.08.17 15.08.17 18.08.17 - - - - 14.08.17
_ Min-Zeit 06:50 14:35 18:45 - - - - 00:00
Minimum _ 9,5 C 41 % 1007,3 hPa - - - - 0,0 km/h (0 Bft)
Max-Datum _ 18.08.17 16.08.17 20.08.17 18.08.17 - 14.08.17 19.08.17 18.08.17
_ Max-Zeit 16:35 09:10 23:50 19:50 - 06:30 13:00 19:45
Maximum _ 30,1 C 100 % 1022,9 hPa 15,2 l/m - 0,08 h 998 W/m 62,8 km/h
N (8 Bft)
Durchschnitt _ 18,9 C 82 % 1016,6 hPa #46,6 l/m W-SW #56:10 h 356 W/m 4,6 km/h (1 Bft)